Time;durP1;ratioP1;P1;durP2;ratioP2;P2;SDS_P1;SDS_P2;PMS_P1;PMS_P2;Temp;Humidity;BMP_temperature;BMP_pressure;BME280_temperature;BME280_humidity;BME280_pressure;Samples;Min_cycle;Max_cycle;Signal;HPM_P1;HPM_P2
2023/09/08 15:40:43;;;;;;;12.20;6.80;;;;;;;27.19;46.80;97670.02;102030;1297;644788;-83
2023/09/08 15:43:52;;;;;;;9.70;6.10;;;;;;;27.01;47.64;97670.19;98766;1287;5354802;-82
2023/09/08 15:46:53;;;;;;;5.60;4.90;;;;;;;26.84;48.14;97673.58;101869;1293;98413;-81
2023/09/08 16:05:33;;;;;;;10.90;7.00;;;;;;;25.99;49.31;97661.38;102331;1288;636164;-81
2023/09/08 16:08:41;;;;;;;8.90;6.70;;;;;;;25.84;50.09;97661.98;103965;1280;96024;-84
2023/09/08 16:11:50;;;;;;;8.80;6.30;;;;;;;25.63;50.56;97662.23;103272;1283;95982;-82
2023/09/08 16:36:04;;;;;;;11.50;7.50;;;;;;;25.46;53.43;97656.04;105257;1260;643284;-80
2023/09/08 16:39:11;;;;;;;11.50;7.70;;;;;;;25.31;54.42;97657.71;101707;1268;5373351;-83
2023/09/08 16:42:18;;;;;;;11.50;7.40;;;;;;;25.03;55.06;97662.61;105176;1269;96058;-83
2023/09/08 16:45:25;;;;;;;10.40;7.40;;;;;;;24.78;55.63;97664.98;105166;1280;98493;-84
2023/09/08 16:48:28;;;;;;;11.60;8.50;;;;;;;24.52;55.98;97664.64;104103;1289;100368;-84
2023/09/08 17:31:51;;;;;;;11.10;8.30;;;;;;;22.06;60.26;97688.81;105575;1266;94720;-82
2023/09/08 17:34:58;;;;;;;13.70;8.90;;;;;;;21.88;60.90;97695.69;105912;1256;96024;-83
2023/09/08 17:38:05;;;;;;;14.40;9.20;;;;;;;21.72;61.26;97701.85;105406;1268;98510;-83
2023/09/08 17:41:13;;;;;;;13.20;9.20;;;;;;;21.52;61.52;97702.02;104381;1279;100249;-82
2023/09/08 18:03:56;;;;;;;20.20;14.30;;;;;;;21.30;62.79;97702.70;102375;1286;640341;-75
2023/09/08 18:06:24;;;;;;;25.10;14.50;;;;;;;21.24;63.04;97707.98;104323;1272;98225;-75
2023/09/08 18:08:51;;;;;;;20.00;14.30;;;;;;;21.05;62.96;97709.51;104254;1269;96708;-74
2023/09/08 18:11:20;;;;;;;16.20;11.50;;;;;;;20.88;62.97;97711.43;104234;1269;99643;-74
2023/09/08 18:13:49;;;;;;;16.50;12.60;;;;;;;20.74;63.20;97713.42;104150;1272;101420;-74
2023/09/08 18:16:17;;;;;;;15.10;11.70;;;;;;;20.55;63.39;97711.92;104250;1277;98534;-82
2023/09/08 18:18:47;;;;;;;18.00;12.00;;;;;;;20.39;63.64;97710.36;104310;1269;95870;-82
2023/09/08 18:21:15;;;;;;;16.70;11.90;;;;;;;20.31;63.80;97715.01;104703;1260;96722;-75
2023/09/08 18:23:43;;;;;;;16.30;10.90;;;;;;;20.24;63.90;97716.95;104642;1260;98363;-74
2023/09/08 18:26:11;;;;;;;15.80;11.60;;;;;;;20.16;64.20;97720.30;104584;1263;101360;-75
2023/09/08 18:28:39;;;;;;;15.70;11.80;;;;;;;20.06;64.33;97722.75;104551;1263;106701;-75
2023/09/08 18:31:06;;;;;;;14.70;11.70;;;;;;;19.98;64.40;97723.14;104650;1259;96178;-83
2023/09/08 18:33:34;;;;;;;19.00;13.20;;;;;;;19.89;64.38;97722.85;104596;1260;96047;-82
2023/09/08 18:36:02;;;;;;;22.70;15.80;;;;;;;19.79;64.60;97723.01;104585;1264;100874;-83
2023/09/08 18:38:31;;;;;;;21.80;15.00;;;;;;;19.68;64.54;97722.10;104715;1260;101276;-74
2023/09/08 18:40:59;;;;;;;21.40;15.30;;;;;;;19.54;64.64;97719.20;104633;1260;99777;-74
2023/09/08 18:43:27;;;;;;;22.00;15.80;;;;;;;19.42;64.95;97716.70;104557;1263;97063;-74
2023/09/08 18:45:55;;;;;;;27.60;16.80;;;;;;;19.32;65.20;97717.16;104645;1261;96853;-82
2023/09/08 18:48:23;;;;;;;26.20;16.00;;;;;;;19.24;65.27;97716.86;104644;1261;99901;-83
2023/09/08 18:50:51;;;;;;;25.70;17.00;;;;;;;19.16;65.57;97712.35;104631;1261;100315;-81
2023/09/08 18:53:19;;;;;;;25.40;16.50;;;;;;;19.08;65.53;97712.33;104594;1257;97479;-82
2023/09/08 18:55:46;;;;;;;21.10;14.10;;;;;;;19.01;65.61;97712.65;104952;1260;95909;-83
2023/09/08 18:58:14;;;;;;;18.20;13.10;;;;;;;18.94;65.68;97711.59;104874;1257;96804;-83
2023/09/08 19:00:44;;;;;;;19.50;13.10;;;;;;;18.88;66.00;97714.25;104739;1263;102101;-83
2023/09/08 19:03:13;;;;;;;14.50;11.50;;;;;;;18.81;65.95;97715.65;104980;1260;99430;-83
2023/09/08 19:05:41;;;;;;;15.60;11.60;;;;;;;18.74;66.17;97716.23;104996;1269;99010;-83
2023/09/08 19:08:09;;;;;;;15.70;12.00;;;;;;;18.69;66.30;97718.36;104827;1259;95851;-83
2023/09/08 19:10:37;;;;;;;14.40;11.20;;;;;;;18.64;66.55;97718.45;104897;1259;95962;-83
2023/09/08 19:13:05;;;;;;;16.20;11.80;;;;;;;18.59;66.56;97718.95;104891;1259;101070;-82
2023/09/08 19:15:32;;;;;;;16.60;12.40;;;;;;;18.54;66.68;97718.81;104863;1259;101536;-76
2023/09/08 19:18:00;;;;;;;17.30;13.80;;;;;;;18.49;66.72;97721.68;104833;1256;99016;-75
2023/09/08 19:20:28;;;;;;;19.10;14.90;;;;;;;18.45;66.81;97724.60;104827;1260;95934;-75
2023/09/08 19:22:56;;;;;;;23.60;15.00;;;;;;;18.41;67.03;97724.27;104814;1256;97103;-75
2023/09/08 19:25:23;;;;;;;23.50;15.70;;;;;;;18.36;67.06;97726.05;104785;1257;101029;-76
2023/09/08 19:27:51;;;;;;;20.50;15.20;;;;;;;18.29;67.12;97727.77;104873;1259;101290;-75
2023/09/08 19:30:19;;;;;;;18.40;13.70;;;;;;;18.22;67.03;97731.45;104773;1272;106582;-75
2023/09/08 19:32:49;;;;;;;20.80;13.80;;;;;;;18.14;67.30;97731.94;104801;1259;95950;-83
2023/09/08 19:35:17;;;;;;;20.30;13.90;;;;;;;18.08;67.65;97735.73;104786;1256;96081;-75
2023/09/08 19:37:44;;;;;;;18.20;13.10;;;;;;;18.01;67.82;97732.84;104825;1268;102271;-75
2023/09/08 19:40:12;;;;;;;16.50;12.30;;;;;;;17.96;67.83;97734.04;104876;1259;100579;-75
2023/09/08 19:42:40;;;;;;;20.90;13.20;;;;;;;17.92;67.93;97733.14;104784;1275;98919;-75
2023/09/08 19:45:08;;;;;;;19.20;12.70;;;;;;;17.86;68.00;97734.48;104903;1259;96839;-75
2023/09/08 19:47:35;;;;;;;19.20;13.00;;;;;;;17.80;68.02;97733.87;104927;1259;96808;-76
2023/09/08 19:50:04;;;;;;;15.90;12.00;;;;;;;17.74;68.22;97729.16;104851;1259;101007;-76
2023/09/08 19:52:31;;;;;;;17.20;11.50;;;;;;;17.69;68.34;97732.73;104807;1259;100616;-76
2023/09/08 19:54:59;;;;;;;15.20;11.60;;;;;;;17.63;68.35;97733.65;104773;1259;99660;-75
2023/09/08 19:57:27;;;;;;;15.40;12.20;;;;;;;17.57;68.48;97731.68;104601;1269;95947;-74
2023/09/08 19:59:55;;;;;;;16.70;12.40;;;;;;;17.50;68.50;97725.08;104854;1259;97207;-75
2023/09/08 20:02:22;;;;;;;19.30;13.20;;;;;;;17.44;68.50;97724.70;104813;1259;100640;-75
2023/09/08 20:04:50;;;;;;;18.20;11.90;;;;;;;17.39;68.77;97719.77;104770;1259;100059;-75
2023/09/08 20:07:18;;;;;;;18.70;13.10;;;;;;;17.34;68.85;97723.33;104763;1255;99052;-75
2023/09/08 20:09:46;;;;;;;19.10;12.70;;;;;;;17.28;68.90;97727.98;104642;1257;95904;-75
2023/09/08 20:12:14;;;;;;;19.90;13.40;;;;;;;17.24;68.99;97732.33;104840;1254;96537;-75
2023/09/08 20:14:43;;;;;;;16.00;12.80;;;;;;;17.18;69.01;97730.85;104749;1256;99966;-76
2023/09/08 20:17:10;;;;;;;18.50;12.60;;;;;;;17.14;69.14;97729.05;104710;1259;101581;-82
2023/09/08 20:19:38;;;;;;;19.20;13.10;;;;;;;17.10;69.03;97730.44;104754;1259;99031;-82
2023/09/08 20:22:06;;;;;;;19.00;13.20;;;;;;;17.06;69.15;97736.23;104749;1260;96696;-82
2023/09/08 20:24:34;;;;;;;20.70;13.00;;;;;;;17.01;69.41;97737.61;104787;1259;96438;-82
2023/09/08 20:27:01;;;;;;;15.70;12.40;;;;;;;16.94;69.52;97738.80;104755;1269;100885;-82
2023/09/08 20:29:29;;;;;;;16.70;13.20;;;;;;;16.88;69.65;97740.73;104850;1259;101632;-82
2023/09/08 20:31:57;;;;;;;20.70;13.40;;;;;;;16.85;69.86;97740.27;104767;1259;100075;-75
2023/09/08 20:34:24;;;;;;;16.30;12.00;;;;;;;16.82;69.98;97743.80;104821;1275;95884;-81
2023/09/08 20:36:52;;;;;;;16.90;12.40;;;;;;;16.78;69.99;97745.33;104804;1254;96817;-82
2023/09/08 20:39:20;;;;;;;15.60;11.40;;;;;;;16.72;70.03;97745.40;104869;1260;100713;-82
2023/09/08 20:41:48;;;;;;;16.30;12.30;;;;;;;16.66;70.04;97745.13;104807;1256;101457;-83
2023/09/08 20:44:16;;;;;;;14.20;11.40;;;;;;;16.56;70.02;97745.39;104741;1260;100151;-82
2023/09/08 20:46:46;;;;;;;16.00;11.40;;;;;;;16.46;70.24;97747.55;104870;1259;96156;-82
2023/09/08 20:49:14;;;;;;;16.30;12.00;;;;;;;16.40;70.55;97748.69;104678;1259;95961;-82
2023/09/08 20:51:41;;;;;;;19.20;11.60;;;;;;;16.38;70.47;97750.23;104849;1261;99960;-76
2023/09/08 20:54:09;;;;;;;15.00;11.70;;;;;;;16.36;70.54;97753.30;104866;1267;100393;-76
2023/09/08 20:56:36;;;;;;;17.10;11.10;;;;;;;16.33;70.52;97754.38;104857;1259;99883;-75
2023/09/08 20:59:05;;;;;;;13.40;11.40;;;;;;;16.30;70.60;97756.34;104891;1259;95851;-76
2023/09/08 21:01:32;;;;;;;18.80;11.30;;;;;;;16.26;70.48;97758.97;104936;1259;96837;-75
2023/09/08 21:04:00;;;;;;;12.20;9.90;;;;;;;16.23;70.68;97760.25;104929;1259;99483;-75
2023/09/08 21:06:28;;;;;;;12.50;10.20;;;;;;;16.17;70.64;97758.92;105011;1254;101298;-75
2023/09/08 21:08:56;;;;;;;16.80;10.50;;;;;;;16.13;70.60;97759.05;104840;1257;98690;-75
2023/09/08 21:11:24;;;;;;;14.40;10.50;;;;;;;16.07;70.63;97755.86;104905;1259;96142;-75
2023/09/08 21:13:52;;;;;;;17.30;10.70;;;;;;;16.01;70.84;97755.41;104897;1255;96718;-74
2023/09/08 21:16:19;;;;;;;13.60;10.80;;;;;;;15.98;70.85;97756.85;104994;1254;100803;-75
2023/09/08 21:18:47;;;;;;;15.40;10.80;;;;;;;15.96;71.09;97758.39;104937;1259;101347;-74
2023/09/08 21:21:15;;;;;;;13.80;10.10;;;;;;;15.96;71.15;97757.80;104878;1276;99181;-75
2023/09/08 21:23:43;;;;;;;15.80;10.40;;;;;;;15.95;71.14;97757.88;104858;1259;96257;-74
2023/09/08 21:26:10;;;;;;;18.20;11.60;;;;;;;15.91;71.05;97754.90;104956;1259;96916;-74
2023/09/08 21:28:39;;;;;;;15.20;11.00;;;;;;;15.86;71.14;97754.02;104929;1260;100935;-74
2023/09/08 21:31:08;;;;;;;15.60;11.00;;;;;;;15.82;71.11;97755.16;104652;1262;101069;-83
2023/09/08 21:33:36;;;;;;;14.40;10.50;;;;;;;15.77;71.15;97754.52;105062;1255;98754;-82
2023/09/08 21:36:05;;;;;;;13.40;10.80;;;;;;;15.72;71.26;97750.19;104844;1260;96151;-82
2023/09/08 21:38:33;;;;;;;13.50;10.20;;;;;;;15.69;71.30;97748.67;104923;1260;96786;-83
2023/09/08 21:41:07;;;;;;;13.00;10.20;;;;;;;15.65;71.34;97752.28;105070;1257;101026;-82
2023/09/08 21:43:35;;;;;;;12.20;10.40;;;;;;;15.62;71.44;97755.50;105248;1259;100344;-82
2023/09/08 21:46:07;;;;;;;13.50;11.10;;;;;;;15.59;71.40;97754.88;104872;1260;100315;-83
2023/09/08 21:48:38;;;;;;;13.80;10.30;;;;;;;15.55;71.75;97757.77;104897;1258;96360;-82
2023/09/08 21:51:06;;;;;;;12.20;10.50;;;;;;;15.49;71.82;97757.87;104848;1269;95999;-75
2023/09/08 21:53:33;;;;;;;14.30;10.40;;;;;;;15.41;71.84;97755.73;104640;1262;100253;-75
2023/09/08 21:56:01;;;;;;;15.40;11.40;;;;;;;15.35;71.92;97759.21;104791;1257;101477;-75
2023/09/08 21:58:29;;;;;;;15.50;10.40;;;;;;;15.33;72.03;97757.52;104791;1259;99351;-75
2023/09/08 22:00:57;;;;;;;17.60;11.20;;;;;;;15.31;71.94;97756.24;104564;1265;96031;-82
2023/09/08 22:03:24;;;;;;;14.30;9.70;;;;;;;15.28;72.18;97754.69;104872;1260;95922;-82
2023/09/08 22:05:52;;;;;;;14.60;10.00;;;;;;;15.25;72.00;97754.85;104840;1268;100950;-81
2023/09/08 22:08:20;;;;;;;15.20;11.40;;;;;;;15.23;72.08;97756.82;104933;1270;100423;-80
2023/09/08 22:10:47;;;;;;;11.70;10.10;;;;;;;15.20;72.03;97755.84;104863;1261;100034;-73
2023/09/08 22:13:15;;;;;;;14.20;9.70;;;;;;;15.17;72.16;97749.17;104853;1259;97237;-73
2023/09/08 22:15:43;;;;;;;12.20;10.40;;;;;;;15.13;72.17;97749.89;104890;1259;97007;-80
2023/09/08 22:18:11;;;;;;;13.00;10.40;;;;;;;15.10;72.16;97747.85;104890;1257;102389;-80
2023/09/08 22:20:39;;;;;;;14.60;10.40;;;;;;;15.07;72.27;97751.75;104839;1254;100355;-80
2023/09/08 22:23:07;;;;;;;11.30;10.00;;;;;;;15.04;72.40;97748.45;104603;1263;99951;-80
2023/09/08 22:25:35;;;;;;;14.10;10.30;;;;;;;15.00;72.43;97747.98;104693;1259;97900;-81
2023/09/08 22:28:03;;;;;;;17.20;11.20;;;;;;;14.95;72.39;97742.56;104678;1259;97396;-74
2023/09/08 22:30:31;;;;;;;16.10;10.40;;;;;;;14.91;72.50;97740.80;104752;1258;102549;-74
2023/09/08 22:32:58;;;;;;;12.40;10.20;;;;;;;14.86;72.63;97741.26;104667;1257;101390;-74
2023/09/08 22:35:26;;;;;;;13.30;10.80;;;;;;;14.80;72.82;97740.73;104672;1259;98990;-74
2023/09/08 22:37:54;;;;;;;13.50;10.10;;;;;;;14.75;72.94;97740.48;104639;1259;97527;-74
2023/09/08 22:40:22;;;;;;;12.10;9.80;;;;;;;14.73;73.09;97739.89;104679;1262;97767;-74
2023/09/08 22:42:50;;;;;;;10.30;9.20;;;;;;;14.72;73.16;97740.25;104645;1261;102272;-74
2023/09/08 22:45:18;;;;;;;15.60;10.40;;;;;;;14.69;72.98;97734.17;104533;1265;100332;-74
2023/09/08 22:47:45;;;;;;;10.70;9.00;;;;;;;14.64;73.03;97730.13;104782;1259;99142;-80
2023/09/08 22:50:13;;;;;;;11.90;9.90;;;;;;;14.61;73.05;97731.06;104766;1258;97778;-81
2023/09/08 22:52:41;;;;;;;13.00;9.90;;;;;;;14.57;73.05;97728.91;104801;1259;97096;-81
2023/09/08 22:55:10;;;;;;;15.20;10.10;;;;;;;14.54;73.11;97731.58;104847;1255;102448;-81
2023/09/08 22:57:37;;;;;;;11.10;9.40;;;;;;;14.50;73.05;97728.27;104879;1260;101714;-82
2023/09/08 23:00:07;;;;;;;11.10;9.90;;;;;;;14.46;73.08;97725.83;105039;1260;98939;-81
2023/09/08 23:02:35;;;;;;;12.60;10.00;;;;;;;14.43;73.15;97727.62;104965;1269;96573;-75
2023/09/08 23:05:03;;;;;;;10.70;9.40;;;;;;;14.40;73.22;97726.96;104870;1259;97085;-75
2023/09/08 23:07:31;;;;;;;12.50;9.60;;;;;;;14.36;73.42;97731.13;104874;1259;102456;-81
2023/09/08 23:09:59;;;;;;;11.90;9.30;;;;;;;14.32;73.26;97731.30;104892;1268;101405;-81
2023/09/08 23:12:26;;;;;;;12.10;8.90;;;;;;;14.30;73.35;97729.70;104893;1259;99753;-81
2023/09/08 23:14:54;;;;;;;10.60;8.00;;;;;;;14.26;73.19;97730.20;104854;1268;96705;-81
2023/09/08 23:17:22;;;;;;;11.60;9.00;;;;;;;14.24;73.26;97727.73;105025;1257;96984;-80
2023/09/08 23:19:49;;;;;;;11.70;8.70;;;;;;;14.20;73.33;97728.39;104950;1260;102226;-80
2023/09/08 23:22:17;;;;;;;12.00;8.70;;;;;;;14.17;73.38;97730.80;104860;1270;100185;-81
2023/09/08 23:24:45;;;;;;;14.50;9.40;;;;;;;14.14;73.33;97729.67;104879;1258;97715;-81
2023/09/08 23:27:13;;;;;;;13.90;9.30;;;;;;;14.10;73.51;97731.39;104901;1267;96558;-80
2023/09/08 23:29:40;;;;;;;12.40;8.70;;;;;;;14.03;73.45;97737.02;104560;1280;97820;-80
2023/09/08 23:32:08;;;;;;;12.70;9.10;;;;;;;14.00;73.61;97736.31;104541;1271;101265;-73
2023/09/08 23:34:36;;;;;;;12.30;9.60;;;;;;;13.96;73.70;97736.59;104598;1262;101627;-73
2023/09/08 23:37:05;;;;;;;15.00;9.80;;;;;;;13.88;73.75;97735.80;104669;1280;99810;-73
2023/09/08 23:39:33;;;;;;;13.30;9.80;;;;;;;13.83;74.15;97733.30;104557;1259;97501;-73
2023/09/08 23:42:02;;;;;;;13.00;9.90;;;;;;;13.83;74.05;97735.77;104627;1275;97091;-73
2023/09/08 23:44:30;;;;;;;15.50;10.60;;;;;;;13.82;74.23;97736.90;104594;1265;109056;-82
2023/09/08 23:46:58;;;;;;;13.20;9.50;;;;;;;13.83;74.21;97734.85;104717;1261;100939;-75
2023/09/08 23:49:26;;;;;;;13.40;10.20;;;;;;;13.82;74.15;97734.52;104509;1281;100381;-74
2023/09/08 23:51:53;;;;;;;12.40;10.00;;;;;;;13.82;74.24;97734.35;104581;1264;96689;-74
2023/09/08 23:54:22;;;;;;;12.60;10.30;;;;;;;13.80;74.23;97734.66;104638;1257;96801;-74
2023/09/08 23:56:50;;;;;;;13.80;10.30;;;;;;;13.77;74.30;97731.41;104598;1262;101301;-74
2023/09/08 23:59:17;;;;;;;13.20;10.00;;;;;;;13.73;74.22;97729.73;104568;1262;101293;-75
